Terminal Aerodrome Forecast
Issued by NWS Newport/Morehead City, NC

Home | Current Version | Previous Version | Text Only | Print | Product List | Glossary On
Versions: 1 2 3 4 5 6 7 8 9 10 11 12 13 14 15 16 17 18 19 20
980
FTUS42 KMHX 291320 AAA
TAFEWN
TAF AMD
KEWN 291320Z 2913/3012 02008KT 4SM BR OVC005
     FM291600 01006KT P6SM SCT007 BKN015
     FM291800 35006KT P6SM SCT040
     FM300800 VRB04KT 4SM BR SCT007 BKN020=

USA.gov is the U.S. government's official web portal to all federal, state and local government web resources and services.